Time;durP1;ratioP1;P1;durP2;ratioP2;P2;SDS_P1;SDS_P2;PMS_P1;PMS_P2;Temp;Humidity;BMP_temperature;BMP_pressure;BME280_temperature;BME280_humidity;BME280_pressure;Samples;Min_cycle;Max_cycle;Signal;HPM_P1;HPM_P2
2023/11/13 00:00:52;;;;;;;2.45;1.30;;;;;;;6.98;100.00;92421.66;2090164;28;20462;-79
2023/11/13 00:01:53;;;;;;;6.60;1.45;;;;;;;7.03;100.00;92425.75;2095354;28;20101;-79
2023/11/13 00:02:54;;;;;;;2.88;1.10;;;;;;;6.99;100.00;92417.84;2104733;28;20069;-81
2023/11/13 00:03:56;;;;;;;4.05;1.20;;;;;;;7.03;100.00;92421.16;2105816;28;20138;-79
2023/11/13 00:04:57;;;;;;;3.60;1.05;;;;;;;7.04;100.00;92425.31;2103075;28;20043;-76
2023/11/13 00:05:58;;;;;;;2.92;0.90;;;;;;;7.14;100.00;92422.84;2103090;28;20050;-78
2023/11/13 00:06:59;;;;;;;4.03;1.20;;;;;;;7.22;100.00;92427.63;2103167;28;20028;-81
2023/11/13 00:08:00;;;;;;;4.13;1.10;;;;;;;7.16;100.00;92415.25;2103405;28;20025;-79
2023/11/13 00:09:01;;;;;;;3.63;1.15;;;;;;;7.10;100.00;92411.56;2101554;28;20031;-79
2023/11/13 00:10:03;;;;;;;2.70;1.02;;;;;;;7.13;100.00;92416.06;2103523;28;20103;-79
2023/11/13 00:11:13;;;;;;;3.25;0.98;;;;;;;7.14;100.00;92415.63;2102853;28;20039;-79
2023/11/13 00:12:14;;;;;;;3.05;0.93;;;;;;;7.14;100.00;92414.88;2108736;28;20102;-81
2023/11/13 00:13:16;;;;;;;1.52;0.80;;;;;;;7.06;100.00;92417.69;2106703;28;20386;-81
2023/11/13 00:14:17;;;;;;;1.88;1.00;;;;;;;7.37;100.00;92424.66;2101276;28;20028;-79
2023/11/13 00:15:19;;;;;;;2.00;1.20;;;;;;;7.40;100.00;92429.91;2106768;28;20358;-80
2023/11/13 00:16:20;;;;;;;1.67;0.80;;;;;;;7.40;100.00;92435.22;2105836;28;20606;-81
2023/11/13 00:17:21;;;;;;;2.78;0.63;;;;;;;7.46;100.00;92430.94;2106611;28;20028;-79
2023/11/13 00:18:22;;;;;;;1.02;0.40;;;;;;;7.45;100.00;92437.41;2106758;28;20035;-78
2023/11/13 00:19:23;;;;;;;1.20;0.40;;;;;;;7.58;100.00;92435.59;2106537;28;20039;-79
2023/11/13 00:20:24;;;;;;;0.75;0.35;;;;;;;7.69;100.00;92438.03;2104656;28;20820;-76
2023/11/13 00:21:25;;;;;;;0.90;0.25;;;;;;;7.73;100.00;92428.06;2091568;28;20059;-79
2023/11/13 00:22:26;;;;;;;0.47;0.22;;;;;;;7.78;100.00;92430.25;2098200;28;20379;-82
2023/11/13 00:23:28;;;;;;;1.10;0.30;;;;;;;7.93;100.00;92432.56;2113800;28;20134;-81
2023/11/13 00:24:29;;;;;;;1.08;0.22;;;;;;;7.77;100.00;92441.28;2097331;28;20135;-81
2023/11/13 00:25:31;;;;;;;0.55;0.20;;;;;;;7.83;100.00;92424.41;2090117;28;20028;-79
2023/11/13 00:26:32;;;;;;;0.77;0.20;;;;;;;7.74;100.00;92434.88;2108751;28;20085;-83
2023/11/13 00:27:33;;;;;;;2.03;0.40;;;;;;;7.97;100.00;92414.63;2109995;28;20027;-82
2023/11/13 00:28:34;;;;;;;1.55;0.30;;;;;;;7.98;100.00;92419.50;2106570;28;20024;-79
2023/11/13 00:29:35;;;;;;;0.20;0.20;;;;;;;8.08;100.00;92409.81;2098628;28;20478;-82
2023/11/13 00:30:37;;;;;;;0.30;0.13;;;;;;;8.23;100.00;92410.19;2090033;28;20096;-79
2023/11/13 00:31:39;;;;;;;0.13;0.13;;;;;;;8.46;100.00;92415.34;2098070;28;20017;-80
2023/11/13 00:32:40;;;;;;;0.55;0.17;;;;;;;8.67;100.00;92416.72;2097889;28;20027;-82
2023/11/13 00:33:41;;;;;;;0.70;0.20;;;;;;;8.62;100.00;92419.91;2098009;28;20017;-82
2023/11/13 00:34:42;;;;;;;1.17;0.20;;;;;;;8.62;100.00;92419.91;2099047;28;20024;-80
2023/11/13 00:35:53;;;;;;;0.10;0.10;;;;;;;8.69;100.00;92408.31;2099083;28;20453;-78
2023/11/13 00:36:54;;;;;;;0.10;0.10;;;;;;;8.72;100.00;92408.22;2103028;28;20028;-82
2023/11/13 00:37:57;;;;;;;0.30;0.25;;;;;;;8.73;100.00;92408.97;2101460;28;20485;-81
2023/11/13 00:38:58;;;;;;;0.10;0.10;;;;;;;8.73;100.00;92403.63;2104327;28;20492;-81
2023/11/13 00:39:59;;;;;;;0.50;0.20;;;;;;;8.73;100.00;92401.72;2101044;28;20024;-82
2023/11/13 00:41:00;;;;;;;0.10;0.10;;;;;;;8.63;100.00;92397.41;2103307;28;20017;-78
2023/11/13 00:42:01;;;;;;;0.30;0.20;;;;;;;8.80;100.00;92401.53;2100528;28;20471;-80
2023/11/13 00:43:02;;;;;;;0.10;0.10;;;;;;;9.08;100.00;92400.00;2100545;28;20514;-78
2023/11/13 00:44:47;;;;;;;0.10;0.10;;;;;;;8.96;100.00;92418.66;2101182;28;20479;-80
2023/11/13 00:45:48;;;;;;;0.20;0.20;;;;;;;8.94;100.00;92392.41;2089701;28;20496;-79
2023/11/13 00:46:49;;;;;;;1.67;0.22;;;;;;;9.10;100.00;92385.53;2093037;28;20035;-76
2023/11/13 00:47:50;;;;;;;0.17;0.10;;;;;;;9.03;100.00;92389.13;2093910;28;20031;-80
2023/11/13 00:48:51;;;;;;;0.22;0.22;;;;;;;8.90;100.00;92397.06;2104999;28;20633;-81
2023/11/13 00:49:52;;;;;;;0.20;0.20;;;;;;;8.92;100.00;92378.75;2100113;28;20028;-79
2023/11/13 00:50:53;;;;;;;0.40;0.25;;;;;;;8.76;100.00;92387.56;2089675;28;20118;-81
2023/11/13 00:51:53;;;;;;;0.50;0.20;;;;;;;8.91;100.00;92389.81;2096903;28;20078;-82
2023/11/13 00:53:11;;;;;;;0.55;0.30;;;;;;;8.87;100.00;92397.94;2108827;28;20353;-81
2023/11/13 00:54:12;;;;;;;1.10;0.30;;;;;;;9.17;100.00;92387.97;2092939;28;20648;-81
2023/11/13 00:55:13;;;;;;;3.03;0.30;;;;;;;9.16;100.00;92387.22;2086089;28;20013;-78
2023/11/13 00:56:14;;;;;;;1.23;0.25;;;;;;;9.21;100.00;92393.94;2100018;28;20024;-79
2023/11/13 00:57:16;;;;;;;0.40;0.20;;;;;;;9.14;100.00;92381.59;2106004;28;20479;-80
2023/11/13 00:58:17;;;;;;;1.38;0.30;;;;;;;9.03;100.00;92386.44;2100895;28;20028;-81
2023/11/13 01:05:51;;;;;;;1.80;0.40;;;;;;;9.09;100.00;92376.78;2095139;28;20115;-79
2023/11/13 01:06:55;;;;;;;0.35;0.25;;;;;;;9.11;100.00;92397.66;2094718;28;20029;-79
2023/11/13 01:07:56;;;;;;;1.75;0.30;;;;;;;9.24;100.00;92398.44;2103535;28;20028;-81
2023/11/13 01:08:58;;;;;;;2.60;0.40;;;;;;;9.06;100.00;92398.94;2092369;28;20024;-80
2023/11/13 01:09:59;;;;;;;4.07;0.50;;;;;;;8.95;100.00;92391.22;2106378;28;20043;-82
2023/11/13 01:11:00;;;;;;;2.60;0.50;;;;;;;9.13;100.00;92396.09;2103542;28;20024;-81
2023/11/13 01:12:01;;;;;;;0.30;0.30;;;;;;;8.96;100.00;92390.06;2102065;28;20099;-78
2023/11/13 01:13:02;;;;;;;0.68;0.40;;;;;;;8.94;100.00;92395.06;2103064;28;20031;-82
2023/11/13 01:14:03;;;;;;;1.80;0.60;;;;;;;9.08;100.00;92384.00;2110176;28;20399;-77
2023/11/13 01:15:06;;;;;;;2.80;0.77;;;;;;;9.05;100.00;92397.44;2110601;28;20181;-79
2023/11/13 01:16:08;;;;;;;0.50;0.30;;;;;;;8.94;100.00;92395.06;2101990;28;20028;-82
2023/11/13 01:17:19;;;;;;;1.38;0.30;;;;;;;8.98;100.00;92394.97;2102242;28;20024;-78
2023/11/13 01:18:23;;;;;;;1.35;0.47;;;;;;;8.92;100.00;92402.75;2104642;28;20099;-77
2023/11/13 01:19:24;;;;;;;1.52;0.50;;;;;;;8.89;100.00;92405.50;2107856;28;20376;-82
2023/11/13 01:20:27;;;;;;;1.25;0.50;;;;;;;9.14;100.00;92410.91;2104724;28;20028;-81
2023/11/13 01:21:27;;;;;;;2.53;0.55;;;;;;;9.09;100.00;92408.78;2091344;28;20024;-78
2023/11/13 01:22:30;;;;;;;2.03;0.47;;;;;;;9.34;100.00;92408.06;2097784;28;20052;-77
2023/11/13 01:23:31;;;;;;;2.25;0.60;;;;;;;9.20;100.00;92405.78;2105256;28;20032;-80
2023/11/13 01:24:32;;;;;;;2.15;0.47;;;;;;;9.18;100.00;92405.47;2097986;28;20520;-80
2023/11/13 01:25:33;;;;;;;4.20;0.90;;;;;;;9.06;100.00;92407.69;2101530;28;20025;-77
2023/11/13 01:26:34;;;;;;;2.10;0.50;;;;;;;9.08;100.00;92416.00;2099073;28;20032;-79
2023/11/13 01:27:35;;;;;;;1.52;0.38;;;;;;;8.99;100.00;92421.19;2098736;28;20029;-80
2023/11/13 01:28:36;;;;;;;2.60;0.57;;;;;;;8.94;100.00;92419.06;2096858;28;20029;-81
2023/11/13 01:29:37;;;;;;;4.68;0.60;;;;;;;8.93;100.00;92425.56;2090104;28;20099;-80
2023/11/13 01:30:38;;;;;;;1.88;0.60;;;;;;;9.00;100.00;92435.28;2099021;28;20048;-78
2023/11/13 01:31:39;;;;;;;5.43;0.63;;;;;;;8.91;100.00;92430.56;2098096;28;20093;-78
2023/11/13 01:32:40;;;;;;;1.88;0.50;;;;;;;8.90;100.00;92429.06;2106211;28;20031;-78
2023/11/13 01:33:41;;;;;;;7.30;1.02;;;;;;;8.87;100.00;92431.81;2109429;28;20456;-79
2023/11/13 01:34:42;;;;;;;3.97;1.13;;;;;;;9.04;100.00;92433.25;2098921;28;20476;-81
2023/11/13 01:35:43;;;;;;;2.78;0.70;;;;;;;8.92;100.00;92426.75;2100543;28;20059;-79
2023/11/13 01:36:44;;;;;;;4.75;0.75;;;;;;;8.80;100.00;92433.50;2098355;28;20385;-79
2023/11/13 01:37:46;;;;;;;5.63;0.82;;;;;;;8.90;100.00;92433.66;2098318;28;20098;-80
2023/11/13 01:38:47;;;;;;;6.60;0.73;;;;;;;9.00;100.00;92428.03;2107659;28;20526;-81
2023/11/13 01:39:48;;;;;;;4.60;0.85;;;;;;;8.91;100.00;92429.81;2112008;28;20023;-78
2023/11/13 01:40:51;;;;;;;6.28;0.77;;;;;;;8.95;100.00;92436.53;2107720;28;20073;-79
2023/11/13 01:41:52;;;;;;;5.93;1.17;;;;;;;9.03;100.00;92432.50;2106018;28;20052;-79
2023/11/13 01:42:53;;;;;;;5.25;0.95;;;;;;;8.85;100.00;92445.56;2106442;28;20117;-79
2023/11/13 01:43:54;;;;;;;4.15;0.90;;;;;;;9.45;100.00;92448.53;2104186;28;20024;-79
2023/11/13 01:44:57;;;;;;;7.40;0.95;;;;;;;9.30;100.00;92440.16;2108395;28;20107;-79
2023/11/13 01:45:59;;;;;;;5.10;0.88;;;;;;;9.36;100.00;92440.41;2110807;28;20065;-80
2023/11/13 01:47:00;;;;;;;7.78;1.33;;;;;;;9.42;100.00;92454.69;2100931;28;20366;-78
2023/11/13 01:48:01;;;;;;;6.90;1.05;;;;;;;9.25;100.00;92464.69;2094412;28;20025;-79
2023/11/13 01:49:04;;;;;;;9.63;1.40;;;;;;;9.28;100.00;92461.16;2093391;28;20035;-79
2023/11/13 01:50:05;;;;;;;5.15;1.00;;;;;;;9.13;100.00;92464.63;2097529;28;20095;-79
2023/11/13 01:51:08;;;;;;;6.85;1.13;;;;;;;9.28;100.00;92455.84;2102328;28;20032;-81
2023/11/13 01:52:10;;;;;;;9.77;1.40;;;;;;;9.02;100.00;92447.03;2100669;28;20032;-78
2023/11/13 01:53:14;;;;;;;7.97;1.10;;;;;;;9.13;100.00;92446.75;2102292;28;20032;-82
2023/11/13 01:54:17;;;;;;;8.27;1.33;;;;;;;9.14;100.00;92437.56;2101146;28;20070;-80
2023/11/13 01:55:18;;;;;;;3.83;0.93;;;;;;;9.18;100.00;92451.56;2102448;28;20020;-80
2023/11/13 01:56:22;;;;;;;8.95;1.70;;;;;;;9.06;100.00;92457.59;2098440;28;20059;-80
2023/11/13 01:57:23;;;;;;;9.55;2.25;;;;;;;9.14;100.00;92447.50;2102542;28;20020;-80
2023/11/13 01:58:37;;;;;;;11.80;1.50;;;;;;;9.08;100.00;92445.31;2103276;28;20038;-80
2023/11/13 01:59:42;;;;;;;11.70;1.33;;;;;;;9.14;100.00;92444.81;2091324;28;20056;-82
2023/11/13 02:00:44;;;;;;;5.82;1.33;;;;;;;8.99;100.00;92447.84;2102881;28;20077;-81
2023/11/13 02:01:45;;;;;;;4.45;1.10;;;;;;;9.00;100.00;92424.59;2098765;28;20047;-82
2023/11/13 02:02:46;;;;;;;5.93;1.40;;;;;;;8.99;100.00;92429.19;2100219;28;20020;-82
2023/11/13 02:03:52;;;;;;;9.25;1.67;;;;;;;9.06;100.00;92418.34;2096262;28;20086;-78
2023/11/13 02:04:53;;;;;;;11.90;1.65;;;;;;;9.15;100.00;92428.41;2104126;28;20020;-82
2023/11/13 02:05:55;;;;;;;7.60;1.30;;;;;;;9.07;100.00;92427.09;2089380;28;20135;-80
2023/11/13 02:06:57;;;;;;;10.43;1.27;;;;;;;8.99;100.00;92415.88;2081512;28;20855;-79
2023/11/13 02:07:58;;;;;;;7.93;1.30;;;;;;;8.93;100.00;92436.22;2092318;28;20475;-80
2023/11/13 02:08:59;;;;;;;3.80;1.02;;;;;;;9.20;100.00;92419.88;2094226;28;20021;-81
2023/11/13 02:10:00;;;;;;;6.80;1.10;;;;;;;9.18;100.00;92410.81;2100791;28;20024;-80
2023/11/13 02:11:06;;;;;;;9.25;1.30;;;;;;;9.28;100.00;92405.16;2102332;28;20103;-81
2023/11/13 02:12:08;;;;;;;8.48;0.90;;;;;;;8.99;100.00;92404.47;2094091;28;20025;-77
2023/11/13 02:13:11;;;;;;;7.32;1.05;;;;;;;9.09;100.00;92390.09;2093149;28;20070;-82
2023/11/13 02:14:14;;;;;;;12.10;1.63;;;;;;;9.07;100.00;92401.19;2102408;28;20056;-80
2023/11/13 02:15:15;;;;;;;6.65;1.00;;;;;;;9.12;100.00;92397.25;2092056;28;20378;-79
2023/11/13 02:16:16;;;;;;;9.18;1.45;;;;;;;9.08;100.00;92400.00;2102208;28;20615;-79
2023/11/13 02:17:17;;;;;;;5.40;1.15;;;;;;;9.02;100.00;92392.97;2105865;28;20484;-80
2023/11/13 02:18:18;;;;;;;4.80;1.30;;;;;;;9.17;100.00;92403.97;2091645;28;20029;-80
2023/11/13 02:19:19;;;;;;;8.32;1.40;;;;;;;9.37;100.00;92393.13;2103400;28;20139;-79
2023/11/13 02:20:20;;;;;;;13.63;1.50;;;;;;;9.32;100.00;92397.06;2099570;28;20178;-81
2023/11/13 02:21:21;;;;;;;5.35;1.65;;;;;;;9.20;100.00;92389.78;2097121;28;20020;-80
2023/11/13 02:24:12;;;;;;;;;;;;;;;8.39;100.00;92406.81;2148793;27;20113;-83
2023/11/13 02:25:16;;;;;;;3.85;1.08;;;;;;;8.55;100.00;92409.41;2129732;27;19911;-83
2023/11/13 02:26:17;;;;;;;5.82;1.30;;;;;;;8.49;100.00;92403.84;2122608;27;20114;-83
2023/11/13 02:27:19;;;;;;;6.80;1.38;;;;;;;8.43;100.00;92397.56;2135312;27;20401;-82
2023/11/13 02:28:20;;;;;;;4.35;1.30;;;;;;;8.51;100.00;92398.84;2121907;27;20030;-81
2023/11/13 02:29:21;;;;;;;6.88;1.50;;;;;;;8.69;100.00;92395.75;2130317;27;20070;-80
2023/11/13 02:30:29;;;;;;;9.57;1.55;;;;;;;8.67;100.00;92400.00;2121434;28;20096;-79
2023/11/13 02:31:30;;;;;;;8.38;2.05;;;;;;;8.55;100.00;92398.75;2122605;27;20038;-77
2023/11/13 02:32:31;;;;;;;7.25;1.27;;;;;;;8.50;100.00;92402.69;2134324;27;20026;-80
2023/11/13 02:33:32;;;;;;;10.05;1.45;;;;;;;8.56;100.00;92410.94;2146291;27;20042;-79
2023/11/13 02:34:33;;;;;;;8.23;1.27;;;;;;;8.49;100.00;92411.09;2147467;27;20105;-82
2023/11/13 02:35:34;;;;;;;12.98;1.52;;;;;;;8.64;100.00;92409.56;2130439;27;20026;-78
2023/11/13 02:36:35;;;;;;;7.22;1.38;;;;;;;8.65;100.00;92413.75;2134341;27;20031;-79
2023/11/13 02:37:37;;;;;;;8.55;1.48;;;;;;;8.51;100.00;92406.84;2138707;27;20459;-79
2023/11/13 02:38:38;;;;;;;5.05;1.30;;;;;;;8.41;100.00;92415.09;2138674;27;20030;-80
2023/11/13 02:39:39;;;;;;;9.20;1.70;;;;;;;8.60;100.00;92424.13;2138361;27;20042;-83
2023/11/13 02:40:40;;;;;;;9.25;1.33;;;;;;;8.69;100.00;92416.28;2121237;27;20027;-80
2023/11/13 02:41:41;;;;;;;8.07;1.27;;;;;;;8.77;100.00;92417.59;2130213;27;20015;-78
2023/11/13 02:42:42;;;;;;;14.27;2.33;;;;;;;8.65;100.00;92418.31;2137965;27;20091;-79
2023/11/13 02:43:43;;;;;;;6.53;1.50;;;;;;;8.76;100.00;92416.13;2129749;27;20023;-78
2023/11/13 02:44:44;;;;;;;9.82;1.50;;;;;;;8.62;100.00;92419.91;2139162;27;20097;-80
2023/11/13 02:45:45;;;;;;;11.68;1.85;;;;;;;8.73;100.00;92423.03;2130857;27;20035;-80
2023/11/13 02:46:46;;;;;;;6.47;1.42;;;;;;;8.88;100.00;92415.41;2137379;27;20478;-78
2023/11/13 02:47:47;;;;;;;7.88;2.08;;;;;;;8.69;100.00;92421.63;2131526;27;20364;-82
2023/11/13 02:48:49;;;;;;;7.43;1.45;;;;;;;8.56;100.00;92417.00;2136710;27;20066;-80
2023/11/13 02:49:50;;;;;;;10.77;1.80;;;;;;;8.53;100.00;92420.50;2136184;27;20037;-84
2023/11/13 02:51:00;;;;;;;8.93;1.50;;;;;;;8.63;100.00;92429.38;2127728;27;20025;-81
2023/11/13 02:52:01;;;;;;;;;;;;;;;8.83;100.00;92415.94;2131978;27;20046;-74
2023/11/13 02:53:02;;;;;;;3.78;1.30;;;;;;;8.89;100.00;92422.25;2132656;27;19911;-84
2023/11/13 02:54:03;;;;;;;8.05;1.45;;;;;;;8.76;100.00;92416.88;2134659;27;20046;-80
2023/11/13 02:55:05;;;;;;;7.00;1.40;;;;;;;8.74;100.00;92421.88;2143109;27;20025;-81
2023/11/13 02:56:06;;;;;;;6.93;1.60;;;;;;;8.85;100.00;92420.84;2133601;27;20022;-82
2023/11/13 02:57:07;;;;;;;8.90;1.60;;;;;;;8.74;100.00;92421.13;2129981;27;20022;-80
2023/11/13 02:58:08;;;;;;;8.07;1.33;;;;;;;8.66;100.00;92420.56;2130295;27;20027;-83
2023/11/13 02:59:09;;;;;;;12.55;2.30;;;;;;;8.68;100.00;92422.78;2132814;27;20543;-78
2023/11/13 03:00:11;;;;;;;8.25;2.00;;;;;;;8.71;100.00;92411.31;2129907;27;20031;-81
2023/11/13 03:01:13;;;;;;;4.28;1.40;;;;;;;8.61;100.00;92418.41;2137493;27;20026;-79
2023/11/13 03:02:14;;;;;;;14.50;1.52;;;;;;;8.57;100.00;92421.16;2126273;27;20030;-79
2023/11/13 03:03:15;;;;;;;8.13;1.42;;;;;;;8.57;100.00;92420.41;2127948;27;20068;-81
2023/11/13 03:04:16;;;;;;;8.40;1.60;;;;;;;8.48;100.00;92420.28;2135936;27;20122;-78
2023/11/13 03:05:18;;;;;;;8.27;1.10;;;;;;;8.42;100.00;92405.94;2147011;27;20056;-82
2023/11/13 03:06:22;;;;;;;6.95;1.38;;;;;;;8.36;100.00;92399.63;2141509;27;20058;-78
2023/11/13 03:07:23;;;;;;;7.50;1.55;;;;;;;8.37;100.00;92404.53;2136361;27;20015;-83
2023/11/13 03:08:24;;;;;;;14.05;2.10;;;;;;;8.61;100.00;92405.09;2123034;27;20460;-84
2023/11/13 03:09:25;;;;;;;9.00;1.90;;;;;;;8.68;100.00;92396.16;2119496;28;20086;-80
2023/11/13 03:10:42;;;;;;;7.38;1.20;;;;;;;8.71;100.00;92403.31;2129876;27;20022;-80
2023/11/13 03:11:42;;;;;;;17.58;2.10;;;;;;;8.59;100.00;92410.06;2130731;27;20074;-78
2023/11/13 03:12:43;;;;;;;13.77;1.73;;;;;;;8.61;100.00;92410.41;2138597;27;20023;-84
2023/11/13 03:13:44;;;;;;;9.25;1.83;;;;;;;8.61;100.00;92405.09;2146668;27;20025;-83
2023/11/13 03:14:46;;;;;;;9.73;1.67;;;;;;;8.61;100.00;92412.34;2122494;27;20023;-83
2023/11/13 03:15:48;;;;;;;9.90;1.90;;;;;;;8.64;100.00;92422.88;2121365;27;20505;-79
2023/11/13 03:16:49;;;;;;;7.50;1.30;;;;;;;8.59;100.00;92423.41;2120543;27;20557;-84
2023/11/13 03:17:51;;;;;;;9.77;1.90;;;;;;;8.77;100.00;92422.94;2130079;27;20050;-79
2023/11/13 03:18:52;;;;;;;11.38;1.30;;;;;;;8.91;100.00;92417.25;2129802;27;20438;-83
2023/11/13 03:19:53;;;;;;;11.93;1.83;;;;;;;8.78;100.00;92416.44;2130044;27;20038;-81
2023/11/13 03:20:54;;;;;;;7.82;1.40;;;;;;;8.81;100.00;92413.69;2140766;27;20022;-82
2023/11/13 03:21:57;;;;;;;9.25;1.48;;;;;;;8.69;100.00;92408.31;2147418;27;20454;-82
2023/11/13 03:22:58;;;;;;;9.55;1.38;;;;;;;8.70;100.00;92402.56;2138209;27;20060;-82
2023/11/13 03:23:59;;;;;;;12.65;1.30;;;;;;;8.57;100.00;92418.50;2126381;27;20044;-79
2023/11/13 03:25:04;;;;;;;6.43;1.50;;;;;;;8.51;100.00;92428.16;2124703;27;20019;-79
2023/11/13 03:26:05;;;;;;;10.85;1.58;;;;;;;8.54;100.00;92435.31;2134231;27;20470;-78
2023/11/13 03:27:06;;;;;;;9.23;1.58;;;;;;;8.56;100.00;92430.31;2138272;27;20023;-80
2023/11/13 03:28:08;;;;;;;10.13;1.77;;;;;;;8.45;100.00;92431.75;2129841;27;20023;-82
2023/11/13 03:29:09;;;;;;;6.90;1.42;;;;;;;8.39;100.00;92434.19;2124768;27;20448;-79
2023/11/13 03:30:10;;;;;;;5.10;1.30;;;;;;;8.39;100.00;92422.78;2133662;27;20049;-79
2023/11/13 03:31:15;;;;;;;11.30;1.90;;;;;;;8.28;100.00;92433.66;2134888;27;20023;-79
2023/11/13 03:32:17;;;;;;;9.07;1.45;;;;;;;8.31;100.00;92451.47;2125850;27;20027;-82
2023/11/13 03:33:18;;;;;;;10.18;2.00;;;;;;;8.58;100.00;92441.28;2132163;27;20030;-83
2023/11/13 03:34:19;;;;;;;9.73;1.77;;;;;;;8.64;100.00;92441.53;2136853;27;20539;-83
2023/11/13 03:35:20;;;;;;;8.68;1.83;;;;;;;8.47;100.00;92445.38;2132840;27;20033;-77
2023/11/13 03:36:21;;;;;;;12.70;1.80;;;;;;;8.49;100.00;92454.47;2124093;27;20054;-80
2023/11/13 03:37:22;;;;;;;13.85;1.83;;;;;;;8.49;100.00;92446.47;2128016;27;20023;-77
2023/11/13 03:38:23;;;;;;;7.47;1.42;;;;;;;8.59;100.00;92447.38;2115342;28;20456;-77
2023/11/13 03:43:19;;;;;;;13.65;2.45;;;;;;;8.72;100.00;92474.06;2138815;27;20026;-82
2023/11/13 03:44:20;;;;;;;12.85;2.53;;;;;;;8.73;100.00;92478.22;2135251;27;20026;-81
2023/11/13 03:45:21;;;;;;;11.55;2.05;;;;;;;8.77;100.00;92482.31;2139476;27;20105;-80
2023/11/13 03:46:22;;;;;;;11.13;1.70;;;;;;;8.69;100.00;92474.91;2134681;27;20026;-80
2023/11/13 03:47:23;;;;;;;9.10;1.80;;;;;;;8.58;100.00;92467.94;2130472;27;20018;-80
2023/11/13 03:48:24;;;;;;;10.25;1.67;;;;;;;8.61;100.00;92473.59;2123814;27;20050;-83
2023/11/13 03:49:25;;;;;;;15.50;2.08;;;;;;;8.57;100.00;92484.34;2130811;27;20024;-81
2023/11/13 03:50:26;;;;;;;9.10;2.17;;;;;;;8.57;100.00;92471.78;2123784;27;20027;-80
2023/11/13 03:51:27;;;;;;;11.65;1.65;;;;;;;8.62;100.00;92469.78;2116761;27;20039;-79
2023/11/13 03:52:28;;;;;;;12.25;2.42;;;;;;;8.83;100.00;92461.25;2123692;27;20050;-79
2023/11/13 03:53:29;;;;;;;10.65;2.10;;;;;;;9.14;100.00;92474.91;2131969;27;20050;-80
2023/11/13 03:54:30;;;;;;;11.50;2.65;;;;;;;8.99;100.00;92463.09;2131454;27;20027;-83
2023/11/13 03:55:31;;;;;;;9.60;1.52;;;;;;;8.84;100.00;92470.72;2129772;27;20023;-84
2023/11/13 03:56:32;;;;;;;14.82;2.42;;;;;;;8.90;100.00;92470.97;2135276;27;20054;-79
2023/11/13 03:57:33;;;;;;;14.10;2.28;;;;;;;8.80;100.00;92454.81;2128181;27;20026;-82
2023/11/13 03:58:34;;;;;;;7.57;2.00;;;;;;;8.66;100.00;92463.19;2126668;27;20064;-83
2023/11/13 03:59:35;;;;;;;11.38;1.85;;;;;;;8.57;100.00;92463.03;2133617;27;20018;-79
2023/11/13 04:00:36;;;;;;;12.10;1.85;;;;;;;8.49;100.00;92459.78;2137085;27;20030;-82
2023/11/13 04:01:37;;;;;;;13.02;2.83;;;;;;;8.48;100.00;92460.22;2120090;27;20031;-79
2023/11/13 04:02:38;;;;;;;11.60;1.98;;;;;;;8.71;100.00;92467.25;2120842;27;20104;-80
2023/11/13 04:03:39;;;;;;;15.35;2.20;;;;;;;8.68;100.00;92465.41;2134192;27;20514;-80
2023/11/13 04:04:40;;;;;;;10.98;1.75;;;;;;;8.57;100.00;92468.38;2140903;27;20018;-84
2023/11/13 04:05:41;;;;;;;12.43;1.85;;;;;;;8.54;100.00;92477.94;2132569;27;20026;-78
2023/11/13 04:06:42;;;;;;;14.30;2.78;;;;;;;8.46;100.00;92475.84;2140626;27;20030;-81
2023/11/13 04:07:43;;;;;;;14.15;1.95;;;;;;;8.45;100.00;92480.44;2133726;27;20379;-81
2023/11/13 04:08:44;;;;;;;16.83;2.65;;;;;;;8.52;100.00;92474.94;2140278;27;20022;-80
2023/11/13 04:09:46;;;;;;;12.43;2.25;;;;;;;8.45;100.00;92469.78;2132525;27;20050;-81
2023/11/13 04:10:49;;;;;;;16.40;2.60;;;;;;;8.45;100.00;92479.69;2123510;27;20023;-82
2023/11/13 04:11:50;;;;;;;13.40;2.92;;;;;;;8.52;100.00;92474.19;2125886;27;20027;-81
2023/11/13 04:12:51;;;;;;;20.15;3.03;;;;;;;8.63;100.00;92477.34;2141402;27;20025;-81
2023/11/13 04:13:52;;;;;;;16.38;2.13;;;;;;;8.82;100.00;92471.16;2141292;27;20045;-78
2023/11/13 04:14:53;;;;;;;13.48;2.20;;;;;;;8.66;100.00;92475.75;2141460;27;20046;-83
2023/11/13 04:15:56;;;;;;;15.85;2.40;;;;;;;8.60;100.00;92469.44;2141455;27;20054;-78
2023/11/13 04:16:57;;;;;;;14.30;2.70;;;;;;;8.54;100.00;92477.19;2137587;27;20030;-83
2023/11/13 04:17:58;;;;;;;18.92;2.90;;;;;;;8.50;100.00;92471.19;2137015;27;20105;-81
2023/11/13 04:18:59;;;;;;;13.40;2.17;;;;;;;8.50;100.00;92479.94;2136041;27;20041;-82
2023/11/13 04:20:05;;;;;;;12.23;1.70;;;;;;;8.54;100.00;92469.19;2138113;27;20058;-77
2023/11/13 04:21:06;;;;;;;11.43;2.60;;;;;;;8.42;100.00;92477.84;2124281;27;20027;-84
2023/11/13 04:22:07;;;;;;;11.90;2.25;;;;;;;8.67;100.00;92478.00;2127742;27;20092;-82
2023/11/13 04:23:08;;;;;;;19.30;2.67;;;;;;;8.69;100.00;92474.91;2127467;27;20034;-80
2023/11/13 04:24:09;;;;;;;13.43;2.28;;;;;;;8.53;100.00;92479.09;2127905;27;20034;-77
2023/11/13 04:25:11;;;;;;;15.00;2.35;;;;;;;8.42;100.00;92483.91;2127289;27;20042;-81
2023/11/13 04:26:13;;;;;;;16.50;2.35;;;;;;;8.36;100.00;92482.16;2120784;27;20491;-79
2023/11/13 04:27:14;;;;;;;10.07;2.00;;;;;;;8.36;100.00;92487.50;2128675;27;20015;-76
2023/11/13 04:28:18;;;;;;;17.25;2.80;;;;;;;8.39;100.00;92484.78;2126408;27;20023;-78
2023/11/13 04:29:19;;;;;;;11.85;2.30;;;;;;;8.30;100.00;92488.00;2124654;27;20027;-80
2023/11/13 04:30:20;;;;;;;16.85;2.95;;;;;;;8.46;100.00;92494.50;2123477;27;20027;-78
2023/11/13 04:31:22;;;;;;;13.60;2.35;;;;;;;8.30;100.00;92495.22;2123313;27;20051;-78
2023/11/13 04:32:26;;;;;;;17.98;2.78;;;;;;;8.49;100.00;92496.34;2128403;27;20034;-81
2023/11/13 04:33:27;;;;;;;13.85;2.17;;;;;;;8.54;100.00;92498.50;2124851;27;20026;-78
2023/11/13 04:34:28;;;;;;;11.48;2.10;;;;;;;8.41;100.00;92503.75;2123190;27;20027;-80
2023/11/13 04:35:29;;;;;;;13.32;1.92;;;;;;;8.22;100.00;92512.53;2130894;27;20021;-80
2023/11/13 05:08:14;;;;;;;9.60;1.25;;;;;;;7.88;100.00;92529.59;2088569;28;20458;-84
2023/11/13 05:12:06;;;;;;;7.45;2.28;;;;;;;7.94;100.00;92514.63;2110674;28;20031;-81
2023/11/13 05:21:24;;;;;;;2.70;0.90;;;;;;;7.47;100.00;92520.19;2104762;28;20780;-80
2023/11/13 05:24:27;;;;;;;5.55;2.38;;;;;;;7.31;100.00;92520.09;2094395;28;20082;-78
2023/11/13 05:39:29;;;;;;;5.95;1.15;;;;;;;7.46;100.00;92518.69;2096794;28;20528;-79
2023/11/13 06:04:21;;;;;;;6.28;2.70;;;;;;;7.30;100.00;92524.69;2100443;28;20029;-77
2023/11/13 06:15:27;;;;;;;4.63;3.80;;;;;;;7.29;100.00;92515.22;2071880;28;20049;-82
2023/11/13 06:16:28;;;;;;;6.45;3.10;;;;;;;7.27;100.00;92516.75;2071370;28;20407;-77
2023/11/13 06:17:29;;;;;;;7.57;2.63;;;;;;;7.24;100.00;92507.72;2083667;28;20041;-79
2023/11/13 06:18:30;;;;;;;9.65;1.40;;;;;;;7.22;100.00;92510.03;2111297;28;20463;-80
2023/11/13 06:19:31;;;;;;;3.22;1.35;;;;;;;7.24;100.00;92510.38;2118512;27;20031;-81
2023/11/13 06:20:33;;;;;;;3.22;2.25;;;;;;;7.15;100.00;92509.41;2114746;28;20070;-79
2023/11/13 06:21:34;;;;;;;2.38;2.17;;;;;;;7.39;100.00;92510.09;2109015;28;20024;-78
2023/11/13 06:22:35;;;;;;;2.45;1.33;;;;;;;7.50;100.00;92508.69;2099464;28;20024;-80
2023/11/13 06:23:36;;;;;;;7.20;2.75;;;;;;;7.66;100.00;92502.69;2100037;28;20067;-78
2023/11/13 06:24:38;;;;;;;4.75;1.67;;;;;;;7.64;100.00;92501.59;2121641;28;20035;-80
2023/11/13 06:25:39;;;;;;;2.13;1.20;;;;;;;7.61;100.00;92510.41;2130288;27;20487;-80
2023/11/13 06:26:40;;;;;;;4.72;2.03;;;;;;;7.60;100.00;92500.94;2128066;27;20055;-82
2023/11/13 06:27:41;;;;;;;4.22;1.25;;;;;;;7.53;100.00;92504.50;2124518;27;20029;-79
2023/11/13 06:28:42;;;;;;;4.78;1.05;;;;;;;7.53;100.00;92496.50;2134427;27;20658;-82
2023/11/13 06:29:44;;;;;;;2.50;0.77;;;;;;;7.49;100.00;92501.91;2124831;27;20023;-80
2023/11/13 06:30:45;;;;;;;5.45;1.00;;;;;;;7.45;100.00;92492.50;2126926;27;20022;-79
2023/11/13 06:31:46;;;;;;;10.25;3.55;;;;;;;7.47;100.00;92503.47;2113917;28;20512;-80
2023/11/13 06:32:48;;;;;;;11.20;5.65;;;;;;;7.47;100.00;92492.84;2116396;28;20093;-80
2023/11/13 06:33:49;;;;;;;9.00;5.20;;;;;;;7.49;100.00;92495.81;2127400;27;20062;-78
2023/11/13 06:34:50;;;;;;;10.50;4.40;;;;;;;7.51;100.00;92509.47;2134118;27;20018;-81
2023/11/13 06:35:51;;;;;;;11.02;2.75;;;;;;;7.44;100.00;92507.69;2130987;27;20031;-81